Terminal Aerodrome Forecast
Issued by NWS

Home | Current Version | Previous Version | Text Only | Print | Product List | Glossary Off
Versions: 1 2 3 4 5 6 7 8 9 10 11 12 13 14 15 16 17

227
FTUS43 KTOP 141120
TAFMHK
TAF
KMHK 141120Z 1412/1512 11004KT 5SM -SHRA VCTS BKN035CB
      TEMPO 1412/1416 VRB20G30KT 3SM TSRA BKN030CB
     FM141600 20013KT P6SM VCSH BKN050
     FM142200 31020G30KT P6SM VCTS OVC040CB
      TEMPO 1422/1424 3SM TSRA BKN025CB
     FM150200 35025G35KT P6SM SCT025=

USA.gov is the U.S. government's official web portal to all federal, state and local government web resources and services.